createdAt,value
2019-03-15T00:01:56.201Z,5.93
2019-03-15T00:04:25.777Z,7.17
2019-03-15T00:06:54.614Z,8.13
2019-03-15T00:09:23.450Z,7.10
2019-03-15T00:11:52.288Z,6.28
2019-03-15T00:14:21.112Z,8.10
2019-03-15T00:16:49.941Z,8.20
2019-03-15T00:19:18.809Z,9.23
2019-03-15T00:21:47.653Z,7.35
2019-03-15T00:24:16.490Z,7.85
2019-03-15T00:26:45.336Z,7.33
2019-03-15T00:29:14.254Z,6.83
2019-03-15T00:31:43.769Z,6.63
2019-03-15T00:34:12.601Z,6.87
2019-03-15T00:36:41.451Z,7.20
2019-03-15T00:39:10.295Z,8.23
2019-03-15T00:41:39.126Z,7.53
2019-03-15T00:44:07.962Z,9.37
2019-03-15T00:46:36.786Z,9.20
2019-03-15T00:49:05.659Z,8.70
2019-03-15T00:51:34.466Z,9.73
2019-03-15T00:54:03.300Z,5.93
2019-03-15T00:56:33.034Z,6.53
2019-03-15T00:59:01.731Z,9.97
2019-03-15T01:01:30.571Z,7.82
2019-03-15T01:03:59.415Z,8.97
2019-03-15T01:06:28.263Z,10.18
2019-03-15T01:08:57.827Z,8.23
2019-03-15T01:11:26.659Z,7.67
2019-03-15T01:13:56.233Z,11.60
2019-03-15T01:16:25.069Z,8.80
2019-03-15T01:18:53.903Z,12.23
2019-03-15T01:21:22.730Z,8.87
2019-03-15T01:23:51.573Z,7.47
2019-03-15T01:26:20.405Z,8.40
2019-03-15T01:28:49.969Z,8.93
2019-03-15T01:31:18.798Z,8.40
2019-03-15T01:33:47.641Z,8.10
2019-03-15T01:36:16.475Z,8.90
2019-03-15T01:38:46.038Z,9.17
2019-03-15T01:41:14.877Z,8.63
2019-03-15T01:43:44.462Z,9.50
2019-03-15T01:46:14.042Z,9.40
2019-03-15T01:48:42.877Z,8.80
2019-03-15T01:51:12.455Z,8.87
2019-03-15T01:53:41.302Z,8.20
2019-03-15T01:56:10.138Z,12.93
2019-03-15T01:58:38.993Z,9.07
2019-03-15T02:01:07.864Z,10.57
2019-03-15T02:03:37.426Z,7.03
2019-03-15T02:06:06.253Z,10.73
2019-03-15T02:08:35.098Z,9.37
2019-03-15T02:11:03.948Z,10.30
2019-03-15T02:13:32.769Z,9.07
2019-03-15T02:16:01.607Z,8.90
2019-03-15T02:18:30.443Z,9.47
2019-03-15T02:20:59.294Z,6.67
2019-03-15T02:23:28.132Z,9.33
2019-03-15T02:25:56.981Z,9.40
2019-03-15T02:28:25.809Z,10.55
2019-03-15T02:30:54.659Z,9.03
2019-03-15T02:33:23.489Z,8.63
2019-03-15T02:35:52.319Z,9.83
2019-03-15T02:38:21.150Z,7.70
2019-03-15T02:40:49.986Z,10.40
2019-03-15T02:43:19.190Z,8.87
2019-03-15T02:45:47.675Z,10.03
2019-03-15T02:48:16.496Z,7.83
2019-03-15T02:50:45.440Z,10.30
2019-03-15T02:53:14.202Z,8.73
2019-03-15T02:55:43.042Z,9.03
2019-03-15T02:58:11.878Z,7.27
2019-03-15T03:00:41.165Z,8.37
2019-03-15T03:03:09.524Z,9.47
2019-03-15T03:05:38.362Z,8.87
2019-03-15T03:08:07.182Z,9.40
2019-03-15T03:10:36.045Z,9.20
2019-03-15T03:13:05.609Z,9.57
2019-03-15T03:15:34.453Z,7.60
2019-03-15T03:18:03.296Z,8.30
2019-03-15T03:20:32.115Z,7.37
2019-03-15T03:23:01.723Z,10.70
2019-03-15T03:25:30.555Z,11.30
2019-03-15T03:28:00.591Z,9.77
2019-03-15T03:30:28.980Z,7.90
2019-03-15T03:32:57.821Z,9.67
2019-03-15T03:35:26.647Z,9.47
2019-03-15T03:37:55.480Z,9.87
2019-03-15T03:40:25.059Z,8.60
2019-03-15T03:42:53.955Z,10.73
2019-03-15T03:45:23.486Z,9.10
2019-03-15T03:47:51.604Z,8.23
2019-03-15T03:50:20.439Z,8.70
2019-03-15T03:52:49.279Z,8.43
2019-03-15T03:55:18.163Z,10.63
2019-03-15T03:57:46.959Z,10.17
2019-03-15T04:00:15.794Z,10.63
2019-03-15T04:02:44.637Z,11.80
2019-03-15T04:05:13.471Z,9.83
2019-03-15T04:07:42.296Z,10.13
2019-03-15T04:10:11.117Z,8.47
2019-03-15T04:12:39.995Z,10.07
2019-03-15T04:15:08.792Z,9.57
2019-03-15T04:17:37.620Z,11.17
2019-03-15T04:20:07.199Z,8.20
2019-03-15T04:22:36.023Z,8.00
2019-03-15T04:25:07.232Z,8.13
2019-03-15T04:27:33.720Z,8.80
2019-03-15T04:30:02.577Z,10.63
2019-03-15T04:32:31.416Z,9.83
2019-03-15T04:35:00.466Z,10.13
2019-03-15T04:37:29.109Z,11.73
2019-03-15T04:39:57.964Z,11.00
2019-03-15T04:42:26.826Z,9.03
2019-03-15T04:44:55.706Z,12.23
2019-03-15T04:47:24.546Z,10.60
2019-03-15T04:49:53.399Z,10.57
2019-03-15T04:52:22.239Z,11.77
2019-03-15T04:54:51.078Z,13.47
2019-03-15T04:57:19.915Z,9.53
2019-03-15T04:59:49.497Z,11.47
2019-03-15T05:02:18.339Z,13.43
2019-03-15T05:04:47.187Z,13.30
2019-03-15T05:07:16.026Z,10.63
2019-03-15T05:09:44.857Z,11.33
2019-03-15T05:12:14.443Z,10.20
2019-03-15T05:14:43.289Z,11.70
2019-03-15T05:17:12.123Z,11.93
2019-03-15T05:19:40.963Z,14.53
2019-03-15T05:22:09.807Z,11.17
2019-03-15T05:24:38.655Z,15.03
2019-03-15T05:27:07.495Z,12.97
2019-03-15T05:29:36.337Z,13.30
2019-03-15T05:32:05.181Z,15.70
2019-03-15T05:34:34.779Z,11.57
2019-03-15T05:37:03.614Z,18.05
2019-03-15T05:39:32.455Z,14.93
2019-03-15T05:42:01.308Z,12.93
2019-03-15T05:44:30.166Z,14.90
2019-03-15T05:46:59.016Z,17.02
2019-03-15T05:49:27.863Z,13.10
2019-03-15T05:51:56.716Z,13.67
2019-03-15T05:54:25.567Z,11.67
2019-03-15T05:56:54.423Z,17.17
2019-03-15T05:59:23.306Z,17.10
2019-03-15T06:01:52.115Z,13.40
2019-03-15T06:04:20.959Z,18.53
2019-03-15T06:06:50.551Z,15.67
2019-03-15T06:09:19.419Z,16.90
2019-03-15T06:11:48.279Z,17.80
2019-03-15T06:14:17.129Z,12.57
2019-03-15T06:16:45.970Z,13.57
2019-03-15T06:19:14.802Z,15.90
2019-03-15T06:21:43.637Z,15.53
2019-03-15T06:24:12.502Z,13.90
2019-03-15T06:26:42.089Z,15.67
2019-03-15T06:29:10.943Z,13.80
2019-03-15T06:31:39.801Z,19.23
2019-03-15T06:34:08.636Z,17.85
2019-03-15T06:36:37.475Z,15.17
2019-03-15T06:39:06.327Z,14.33
2019-03-15T06:41:35.212Z,18.53
2019-03-15T06:44:04.051Z,15.73
2019-03-15T06:46:32.890Z,17.23
2019-03-15T06:49:01.719Z,15.00
2019-03-15T06:51:30.565Z,14.33
2019-03-15T06:54:10.809Z,13.40
2019-03-15T06:56:28.254Z,13.00
2019-03-15T06:58:57.103Z,13.23
2019-03-15T07:01:25.957Z,14.83
2019-03-15T07:03:55.663Z,16.27
2019-03-15T07:06:24.431Z,14.83
2019-03-15T07:08:53.275Z,16.80
2019-03-15T07:11:22.122Z,17.30
2019-03-15T07:13:51.712Z,18.27
2019-03-15T07:16:20.587Z,16.02
2019-03-15T07:18:49.401Z,12.30
2019-03-15T07:21:18.293Z,13.73
2019-03-15T07:23:47.095Z,14.93
2019-03-15T07:26:15.971Z,13.10
2019-03-15T07:28:44.771Z,13.07
2019-03-15T07:31:13.618Z,16.50
2019-03-15T07:33:42.473Z,9.80
2019-03-15T07:36:11.328Z,14.37
2019-03-15T07:38:40.167Z,11.73
2019-03-15T07:41:09.010Z,16.27
2019-03-15T07:43:37.899Z,26.33
2019-03-15T07:46:06.755Z,34.28
2019-03-15T07:48:35.625Z,52.33
2019-03-15T07:51:04.467Z,124.00
2019-03-15T07:53:35.424Z,44.53
2019-03-15T07:56:02.897Z,29.33
2019-03-15T07:58:31.739Z,16.97
2019-03-15T08:01:00.576Z,34.73
2019-03-15T08:03:29.427Z,28.80
2019-03-15T08:05:58.291Z,14.90
2019-03-15T08:08:27.146Z,16.97
2019-03-15T08:10:55.995Z,14.30
2019-03-15T08:13:24.844Z,14.30
2019-03-15T08:15:53.711Z,14.20
2019-03-15T08:18:22.545Z,13.40
2019-03-15T08:20:51.404Z,11.50
2019-03-15T08:23:20.248Z,10.87
2019-03-15T08:25:50.413Z,10.03
2019-03-15T08:28:17.949Z,10.97
2019-03-15T08:30:46.790Z,10.63
2019-03-15T08:33:15.629Z,10.40
2019-03-15T08:35:44.464Z,7.47
2019-03-15T08:38:13.311Z,7.80
2019-03-15T08:40:42.159Z,8.73
2019-03-15T08:43:11.002Z,8.37
2019-03-15T08:45:39.846Z,8.63
2019-03-15T08:48:08.711Z,6.93
2019-03-15T08:50:37.623Z,5.07
2019-03-15T08:53:06.424Z,6.57
2019-03-15T08:55:35.278Z,6.63
2019-03-15T08:58:13.772Z,6.00
2019-03-15T09:00:32.989Z,4.93
2019-03-15T09:03:01.824Z,7.83
2019-03-15T09:05:30.683Z,4.87
2019-03-15T09:07:59.514Z,4.57
2019-03-15T09:10:28.360Z,7.73
2019-03-15T09:12:57.202Z,5.50
2019-03-15T09:15:26.042Z,5.47
2019-03-15T09:17:54.897Z,5.17
2019-03-15T09:20:23.775Z,6.73
2019-03-15T09:22:52.590Z,5.87
2019-03-15T09:25:22.172Z,3.87
2019-03-15T09:27:51.021Z,4.20
2019-03-15T09:30:24.108Z,5.33
2019-03-15T09:32:48.697Z,5.30
2019-03-15T09:35:17.583Z,3.50
2019-03-15T09:37:47.906Z,4.80
2019-03-15T09:40:15.999Z,5.77
2019-03-15T09:42:44.845Z,4.60
2019-03-15T09:45:15.335Z,4.97
2019-03-15T09:47:44.161Z,5.83
2019-03-15T09:50:22.868Z,4.53
2019-03-15T09:52:41.847Z,5.20
2019-03-15T09:55:10.699Z,4.87
2019-03-15T09:57:43.239Z,4.43
2019-03-15T10:02:55.643Z,4.97
2019-03-15T10:05:21.306Z,4.70
2019-03-15T10:07:50.161Z,3.80
2019-03-15T10:10:19.386Z,4.33
2019-03-15T10:12:47.836Z,3.17
2019-03-15T10:15:16.691Z,4.33
2019-03-15T10:17:46.293Z,4.90
2019-03-15T10:20:16.060Z,4.50
2019-03-15T10:22:45.033Z,3.33
2019-03-15T10:25:13.879Z,3.20
2019-03-15T10:27:42.706Z,3.67
2019-03-15T10:30:12.399Z,2.77
2019-03-15T10:32:41.248Z,3.20
2019-03-15T10:35:10.077Z,5.50
2019-03-15T10:37:38.923Z,5.03
2019-03-15T10:40:07.809Z,4.07
2019-03-15T10:42:36.609Z,3.93
2019-03-15T10:45:05.482Z,2.07
2019-03-15T10:47:34.327Z,2.77
2019-03-15T10:50:03.185Z,6.47
2019-03-15T10:52:32.030Z,9.00
2019-03-15T10:55:00.861Z,6.03
2019-03-15T10:57:29.687Z,10.17
2019-03-15T10:59:59.288Z,4.10
2019-03-15T11:02:28.115Z,8.73
2019-03-15T11:04:56.952Z,2.57
2019-03-15T11:07:25.813Z,1.70
2019-03-15T11:09:54.657Z,2.27
2019-03-15T11:12:24.241Z,1.50
2019-03-15T11:14:53.674Z,1.50
2019-03-15T11:17:22.509Z,1.57
2019-03-15T11:19:51.345Z,2.20
2019-03-15T11:22:20.189Z,2.13
2019-03-15T11:24:49.028Z,2.37
2019-03-15T11:27:17.865Z,1.57
2019-03-15T11:29:46.704Z,2.00
2019-03-15T11:32:16.277Z,1.30
2019-03-15T11:34:45.111Z,1.30
2019-03-15T11:37:13.958Z,3.00
2019-03-15T11:39:42.796Z,1.47
2019-03-15T11:42:14.825Z,1.63
2019-03-15T11:44:40.513Z,2.43
2019-03-15T11:47:09.415Z,1.87
2019-03-15T11:49:38.231Z,1.97
2019-03-15T11:52:07.819Z,1.20
2019-03-15T11:54:36.674Z,1.77
2019-03-15T11:57:05.529Z,0.95
2019-03-15T11:59:36.364Z,0.80
2019-03-15T12:02:04.706Z,1.27
2019-03-15T12:04:33.563Z,1.23
2019-03-15T12:07:02.412Z,0.63
2019-03-15T12:09:31.257Z,0.80
2019-03-15T12:12:00.086Z,1.20
2019-03-15T12:14:40.477Z,0.90
2019-03-15T12:16:58.517Z,0.50
2019-03-15T12:19:27.356Z,0.60
2019-03-15T12:22:06.174Z,0.70
2019-03-15T12:24:25.629Z,0.90
2019-03-15T12:26:54.485Z,0.60
2019-03-15T12:29:23.329Z,1.33
2019-03-15T12:31:52.163Z,0.50
2019-03-15T12:34:21.023Z,0.87
2019-03-15T12:36:50.586Z,0.57
2019-03-15T12:39:19.421Z,0.52
2019-03-15T12:41:48.271Z,0.50
2019-03-15T12:44:17.129Z,0.60
2019-03-15T12:46:45.973Z,0.40
2019-03-15T12:49:14.817Z,0.53
2019-03-15T12:51:43.653Z,1.80
2019-03-15T12:54:12.488Z,0.80
2019-03-15T12:56:53.217Z,0.60
2019-03-15T12:59:10.960Z,0.53
2019-03-15T13:01:39.770Z,0.73
2019-03-15T13:04:08.609Z,0.47
2019-03-15T13:06:37.453Z,0.50
2019-03-15T13:09:06.293Z,0.40
2019-03-15T13:11:35.141Z,0.60
2019-03-15T13:14:03.980Z,0.75
2019-03-15T13:16:32.856Z,0.70
2019-03-15T13:19:01.727Z,1.90
2019-03-15T13:21:30.561Z,1.20
2019-03-15T13:23:59.408Z,1.60
2019-03-15T13:26:29.114Z,0.63
2019-03-15T13:28:57.111Z,0.60
2019-03-15T13:31:25.943Z,0.63
2019-03-15T13:33:54.777Z,0.80
2019-03-15T13:36:23.634Z,0.97
2019-03-15T13:38:52.468Z,0.70
2019-03-15T13:41:22.051Z,0.77
2019-03-15T13:43:50.900Z,1.00
2019-03-15T13:46:19.743Z,1.20
2019-03-15T13:48:48.623Z,0.60
2019-03-15T13:51:17.421Z,0.60
2019-03-15T13:53:47.007Z,1.67
2019-03-15T13:56:15.895Z,0.95
2019-03-15T13:58:56.765Z,1.23
2019-03-15T14:01:14.288Z,2.13
2019-03-15T14:03:43.141Z,1.40
2019-03-15T14:06:12.022Z,1.87
2019-03-15T14:08:40.881Z,0.80
2019-03-15T14:11:09.735Z,0.90
2019-03-15T14:13:38.587Z,0.97
2019-03-15T14:16:07.427Z,1.47
2019-03-15T14:18:36.274Z,0.77
2019-03-15T14:21:05.128Z,0.90
2019-03-15T14:23:33.983Z,1.23
2019-03-15T14:26:02.827Z,1.10
2019-03-15T14:28:31.687Z,0.60
2019-03-15T14:31:00.539Z,0.50
2019-03-15T14:33:29.382Z,0.70
2019-03-15T14:35:58.254Z,0.50
2019-03-15T14:38:27.348Z,1.33
2019-03-15T14:40:56.064Z,0.90
2019-03-15T14:43:25.526Z,0.77
2019-03-15T14:45:54.639Z,1.77
2019-03-15T14:48:23.205Z,1.23
2019-03-15T14:50:52.037Z,0.80
2019-03-15T14:53:20.917Z,0.87
2019-03-15T14:55:50.499Z,0.60
2019-03-15T14:58:19.335Z,0.60
2019-03-15T15:00:48.177Z,0.80
2019-03-15T15:03:17.022Z,0.87
2019-03-15T15:05:47.287Z,0.85
2019-03-15T15:08:15.450Z,0.70
2019-03-15T15:10:44.306Z,0.87
2019-03-15T15:13:13.180Z,0.53
2019-03-15T15:15:42.027Z,0.67
2019-03-15T15:18:10.885Z,0.60
2019-03-15T15:20:39.743Z,1.40
2019-03-15T15:23:08.580Z,1.00
2019-03-15T15:25:37.425Z,0.97
2019-03-15T15:28:06.284Z,0.77
2019-03-15T15:30:35.171Z,0.80
2019-03-15T15:33:03.987Z,1.20
2019-03-15T15:35:32.827Z,1.70
2019-03-15T15:38:02.755Z,0.50
2019-03-15T15:40:31.573Z,0.60
2019-03-15T15:43:01.148Z,0.50
2019-03-15T15:45:30.127Z,0.60
2019-03-15T15:47:58.829Z,0.57
2019-03-15T15:50:27.673Z,0.60
2019-03-15T15:52:56.540Z,0.50
2019-03-15T15:55:25.382Z,0.70
2019-03-15T15:57:54.233Z,0.70
2019-03-15T16:00:23.078Z,0.80
2019-03-15T16:02:52.023Z,1.90
2019-03-15T16:05:20.783Z,1.83
2019-03-15T16:07:49.632Z,2.43
2019-03-15T16:10:18.696Z,1.77
2019-03-15T16:12:47.309Z,1.73
2019-03-15T16:15:17.993Z,1.80
2019-03-15T16:17:46.941Z,0.63
2019-03-15T16:20:15.779Z,0.57
2019-03-15T16:22:44.627Z,1.20
2019-03-15T16:25:14.219Z,0.60
2019-03-15T16:27:43.055Z,0.80
2019-03-15T16:30:15.727Z,0.87
2019-03-15T16:32:44.566Z,1.63
2019-03-15T16:35:13.404Z,1.67
2019-03-15T16:37:42.263Z,1.50
2019-03-15T16:40:11.699Z,1.30
2019-03-15T16:42:40.544Z,1.20
2019-03-15T16:45:10.330Z,3.07
2019-03-15T16:47:39.174Z,1.27
2019-03-15T16:50:08.773Z,2.30
2019-03-15T16:52:37.611Z,1.87
2019-03-15T16:55:06.452Z,1.50
2019-03-15T16:57:36.034Z,1.60
2019-03-15T17:00:04.903Z,1.17
2019-03-15T17:02:33.770Z,1.47
2019-03-15T17:05:02.629Z,2.00
2019-03-15T17:07:32.240Z,2.37
2019-03-15T17:10:01.068Z,2.10
2019-03-15T17:12:29.899Z,2.73
2019-03-15T17:14:58.739Z,2.40
2019-03-15T17:17:27.635Z,1.80
2019-03-15T17:19:56.454Z,2.03
2019-03-15T17:22:25.328Z,2.67
2019-03-15T17:24:54.317Z,2.60
2019-03-15T17:27:23.072Z,2.40
2019-03-15T17:29:51.923Z,2.57
2019-03-15T17:32:20.774Z,2.20
2019-03-15T17:34:49.621Z,3.07
2019-03-15T17:37:19.203Z,2.87
2019-03-15T17:39:48.164Z,3.13
2019-03-15T17:42:16.892Z,3.10
2019-03-15T17:44:47.436Z,2.90
2019-03-15T17:47:14.582Z,2.83
2019-03-15T17:49:44.189Z,3.03
2019-03-15T17:52:13.037Z,2.70
2019-03-15T17:54:41.959Z,3.00
2019-03-15T17:57:10.999Z,3.40
2019-03-15T17:59:39.760Z,3.00
2019-03-15T18:02:08.631Z,2.63
2019-03-15T18:04:37.518Z,2.70
2019-03-15T18:07:06.366Z,3.40
2019-03-15T18:09:35.159Z,3.47
2019-03-15T18:12:04.010Z,4.50
2019-03-15T18:14:32.876Z,4.17
2019-03-15T18:17:01.713Z,4.07
2019-03-15T18:19:30.559Z,4.13
2019-03-15T18:21:59.395Z,5.57
2019-03-15T18:24:28.234Z,3.60
2019-03-15T18:26:57.077Z,2.93
2019-03-15T18:29:26.791Z,3.00
2019-03-15T18:31:55.514Z,2.63
2019-03-15T18:34:24.352Z,2.83
2019-03-15T18:36:53.191Z,2.40
2019-03-15T18:39:22.042Z,2.67
2019-03-15T18:41:50.899Z,3.20
2019-03-15T18:44:19.921Z,2.60
2019-03-15T18:46:48.686Z,2.50
2019-03-15T18:49:18.714Z,3.93
2019-03-15T18:51:46.393Z,2.80
2019-03-15T18:54:17.634Z,2.97
2019-03-15T18:56:44.108Z,2.53
2019-03-15T18:59:13.844Z,3.07
2019-03-15T19:01:42.563Z,2.60
2019-03-15T19:04:11.399Z,3.60
2019-03-15T19:06:40.986Z,3.43
2019-03-15T19:09:09.822Z,2.60
2019-03-15T19:11:38.686Z,4.40
2019-03-15T19:14:08.275Z,3.30
2019-03-15T19:16:37.151Z,3.33
2019-03-15T19:19:05.972Z,2.70
2019-03-15T19:21:34.912Z,2.20
2019-03-15T19:24:03.687Z,3.13
2019-03-15T19:26:32.536Z,2.40
2019-03-15T19:29:01.368Z,2.83
2019-03-15T19:31:30.225Z,1.80
2019-03-15T19:34:00.022Z,1.47
2019-03-15T19:36:28.882Z,1.33
2019-03-15T19:38:57.722Z,1.50
2019-03-15T19:41:26.610Z,1.83
2019-03-15T19:43:55.416Z,1.40
2019-03-15T19:46:24.286Z,0.90
2019-03-15T19:48:53.882Z,1.03
2019-03-15T19:51:22.738Z,0.80
2019-03-15T19:53:51.628Z,1.37
2019-03-15T19:56:20.498Z,1.00
2019-03-15T19:58:49.339Z,1.10
2019-03-15T20:01:18.198Z,0.80
2019-03-15T20:03:47.061Z,0.90
2019-03-15T20:06:15.898Z,0.80
2019-03-15T20:08:45.333Z,1.37
2019-03-15T20:11:14.238Z,0.63
2019-03-15T20:13:43.097Z,1.13
2019-03-15T20:16:12.706Z,0.93
2019-03-15T20:18:42.332Z,0.70
2019-03-15T20:21:11.159Z,0.90
2019-03-15T20:23:40.010Z,1.67
2019-03-15T20:26:08.891Z,1.73
2019-03-15T20:28:38.477Z,0.80
2019-03-15T20:31:07.329Z,2.27
2019-03-15T20:33:36.211Z,1.57
2019-03-15T20:36:05.042Z,3.03
2019-03-15T20:38:33.898Z,1.20
2019-03-15T20:41:02.798Z,0.83
2019-03-15T20:43:31.612Z,1.00
2019-03-15T20:46:00.469Z,0.80
2019-03-15T20:48:29.307Z,1.00
2019-03-15T20:50:58.154Z,1.00
2019-03-15T20:53:26.987Z,1.80
2019-03-15T20:55:56.690Z,1.53
2019-03-15T20:58:26.177Z,0.93
2019-03-15T21:00:55.862Z,0.90
2019-03-15T21:03:24.663Z,1.27
2019-03-15T21:05:53.529Z,1.23
2019-03-15T21:08:22.375Z,0.80
2019-03-15T21:10:51.726Z,1.13
2019-03-15T21:13:20.072Z,1.07
2019-03-15T21:15:48.920Z,1.37
2019-03-15T21:18:17.790Z,2.00
2019-03-15T21:20:46.623Z,1.17
2019-03-15T21:23:15.507Z,1.10
2019-03-15T21:25:44.363Z,2.27
2019-03-15T21:28:13.170Z,1.17
2019-03-15T21:30:48.460Z,0.90
2019-03-15T21:33:11.607Z,1.70
2019-03-15T21:35:40.458Z,0.87
2019-03-15T21:38:10.048Z,1.33
2019-03-15T21:40:38.912Z,1.23
2019-03-15T21:43:07.763Z,1.40
2019-03-15T21:45:36.614Z,0.80
2019-03-15T21:48:05.446Z,1.40
2019-03-15T21:50:34.299Z,1.07
2019-03-15T21:53:03.883Z,0.80
2019-03-15T21:55:32.729Z,0.97
2019-03-15T21:58:01.571Z,0.90
2019-03-15T22:00:30.435Z,0.90
2019-03-15T22:02:59.283Z,0.70
2019-03-15T22:05:28.141Z,1.30
2019-03-15T22:07:57.025Z,0.70
2019-03-15T22:10:25.836Z,0.60
2019-03-15T22:12:55.475Z,0.70
2019-03-15T22:15:24.290Z,0.83
2019-03-15T22:17:53.240Z,0.70
2019-03-15T22:20:21.990Z,1.23
2019-03-15T22:22:50.836Z,0.70
2019-03-15T22:25:19.667Z,1.73
2019-03-15T22:27:50.235Z,1.10
2019-03-15T22:30:17.449Z,0.77
2019-03-15T22:32:46.269Z,2.07
2019-03-15T22:35:15.864Z,0.87
2019-03-15T22:37:44.719Z,0.90
2019-03-15T22:40:13.578Z,1.33
2019-03-15T22:42:42.428Z,2.00
2019-03-15T22:45:11.285Z,0.67
2019-03-15T22:47:40.140Z,1.10
2019-03-15T22:50:09.805Z,1.03
2019-03-15T22:52:38.657Z,1.70
2019-03-15T22:55:07.520Z,0.90
2019-03-15T22:57:37.121Z,1.10
2019-03-15T23:00:13.276Z,1.47
2019-03-15T23:02:42.897Z,2.30
2019-03-15T23:05:11.704Z,1.17
2019-03-15T23:07:40.568Z,0.80
2019-03-15T23:10:10.146Z,0.90
2019-03-15T23:12:39.737Z,1.67
2019-03-15T23:15:08.617Z,1.20
2019-03-15T23:17:37.462Z,1.50
2019-03-15T23:20:07.106Z,1.43
2019-03-15T23:22:35.956Z,1.93
2019-03-15T23:25:05.532Z,3.67
2019-03-15T23:27:34.374Z,2.40
2019-03-15T23:30:03.231Z,1.93
2019-03-15T23:32:32.096Z,2.43
2019-03-15T23:35:00.972Z,1.80
2019-03-15T23:37:29.809Z,2.50
2019-03-15T23:39:58.657Z,1.40
2019-03-15T23:42:28.286Z,1.97
2019-03-15T23:44:57.105Z,1.77
2019-03-15T23:47:25.954Z,2.75
2019-03-15T23:49:54.805Z,2.17
2019-03-15T23:52:23.654Z,2.20
2019-03-15T23:54:52.518Z,1.37
2019-03-15T23:57:21.359Z,2.83
2019-03-15T23:59:50.213Z,3.63
